Andrus Island, California
Current Conditions -  °F | °C
As of 10:58 PM on Wednesday 22 Oct 2014 (Local Time) from KSUU Reporting Station
Clear Clear  
Wind Chill: 17°   Ceiling: Unl
Heat Index: 17°   Visibility: 10mi
Dew Point: 14°   Wind: 13mph
Humidity: 84%   Direction: 230°SW
Pressure: 30.01"   Gusts: NA
Location:  38.1457°N, 121.624°W
Report Text: KSUU 230558Z AUTO 23011KT 10SM CLR 17/14 A3001 RMK AO2 SLP169 T01700142 10245 20168 52006 $
Loading
Personal Weather Stations






























Interactive Weather Map
Tropical Storm Tracking
New forecast layout! Learn more

10-Day Weather Forecast

Advertisements
Track Severe Weather on mobile